sensor_id;sensor_type;location;lat;lon;timestamp;pressure;altitude;pressure_sealevel;temperature;humidity
6899;BME280;3488;42.616;23.350;2023-07-13T00:02:03;64432.38;;;23.44;49.40
6899;BME280;3488;42.616;23.350;2023-07-13T00:04:30;64429.25;;;23.44;49.93
6899;BME280;3488;42.616;23.350;2023-07-13T00:06:57;64425.06;;;23.37;49.26
6899;BME280;3488;42.616;23.350;2023-07-13T00:09:26;64428.75;;;23.43;49.18
6899;BME280;3488;42.616;23.350;2023-07-13T00:11:55;64425.09;;;23.40;49.65
6899;BME280;3488;42.616;23.350;2023-07-13T00:14:23;64427.69;;;23.40;49.71
6899;BME280;3488;42.616;23.350;2023-07-13T00:16:50;64425.06;;;23.37;50.15
6899;BME280;3488;42.616;23.350;2023-07-13T00:19:17;64406.75;;;23.22;50.17
6899;BME280;3488;42.616;23.350;2023-07-13T00:21:47;64419.84;;;23.35;50.66
6899;BME280;3488;42.616;23.350;2023-07-13T00:24:16;64416.69;;;23.32;51.67
6899;BME280;3488;42.616;23.350;2023-07-13T00:26:50;64404.13;;;23.20;51.93
6899;BME280;3488;42.616;23.350;2023-07-13T00:29:17;64378.53;;;22.95;52.43
6899;BME280;3488;42.616;23.350;2023-07-13T00:34:11;64398.88;;;23.07;53.17
6899;BME280;3488;42.616;23.350;2023-07-13T00:36:39;64382.19;;;22.99;53.40
6899;BME280;3488;42.616;23.350;2023-07-13T00:39:06;64365.44;;;22.82;53.25
6899;BME280;3488;42.616;23.350;2023-07-13T00:41:34;64374.34;;;22.91;53.89
6899;BME280;3488;42.616;23.350;2023-07-13T00:44:04;64369.09;;;22.86;55.08
6899;BME280;3488;42.616;23.350;2023-07-13T00:46:32;64365.44;;;22.82;56.37
6899;BME280;3488;42.616;23.350;2023-07-13T00:49:03;64364.94;;;22.84;56.71
6899;BME280;3488;42.616;23.350;2023-07-13T00:51:34;64349.19;;;22.62;55.93
6899;BME280;3488;42.616;23.350;2023-07-13T00:54:08;64347.13;;;22.65;57.03
6899;BME280;3488;42.616;23.350;2023-07-13T00:56:38;64344.53;;;22.65;56.47
6899;BME280;3488;42.616;23.350;2023-07-13T00:59:08;64347.63;;;22.63;56.55
6899;BME280;3488;42.616;23.350;2023-07-13T01:01:37;64330.44;;;22.54;56.81
6899;BME280;3488;42.616;23.350;2023-07-13T01:04:04;64322.53;;;22.36;56.77
6899;BME280;3488;42.616;23.350;2023-07-13T01:06:34;64333.53;;;22.52;56.48
6899;BME280;3488;42.616;23.350;2023-07-13T01:09:02;64331.94;;;22.50;56.92
6899;BME280;3488;42.616;23.350;2023-07-13T01:11:30;64335.06;;;22.51;57.25
6899;BME280;3488;42.616;23.350;2023-07-13T01:13:58;64326.72;;;22.45;58.12
6899;BME280;3488;42.616;23.350;2023-07-13T01:16:30;64315.78;;;22.37;57.36
6899;BME280;3488;42.616;23.350;2023-07-13T01:18:58;64312.59;;;22.29;58.66
6899;BME280;3488;42.616;23.350;2023-07-13T01:21:29;64320.97;;;22.37;58.19
6899;BME280;3488;42.616;23.350;2023-07-13T01:23:57;64318.34;;;22.35;58.35
6899;BME280;3488;42.616;23.350;2023-07-13T01:26:24;64314.16;;;22.28;58.13
6899;BME280;3488;42.616;23.350;2023-07-13T01:28:52;64327.25;;;22.46;58.62
6899;BME280;3488;42.616;23.350;2023-07-13T01:31:21;64331.91;;;22.45;58.00
6899;BME280;3488;42.616;23.350;2023-07-13T01:33:49;64335.56;;;22.49;58.36
6899;BME280;3488;42.616;23.350;2023-07-13T01:36:16;64328.81;;;22.47;58.77
6899;BME280;3488;42.616;23.350;2023-07-13T01:38:44;64340.88;;;22.59;58.15
6899;BME280;3488;42.616;23.350;2023-07-13T01:41:12;64310.00;;;22.29;61.07
6899;BME280;3488;42.616;23.350;2023-07-13T01:43:39;64306.88;;;22.26;61.18
6899;BME280;3488;42.616;23.350;2023-07-13T01:46:06;64284.94;;;22.05;61.63
6899;BME280;3488;42.616;23.350;2023-07-13T01:48:33;64295.38;;;22.15;63.06
6899;BME280;3488;42.616;23.350;2023-07-13T01:51:00;64293.81;;;22.14;62.39
6899;BME280;3488;42.616;23.350;2023-07-13T01:53:27;64293.25;;;22.11;62.52
6899;BME280;3488;42.616;23.350;2023-07-13T01:55:56;64296.91;;;22.14;62.04
6899;BME280;3488;42.616;23.350;2023-07-13T01:58:24;64295.88;;;22.13;61.67
6899;BME280;3488;42.616;23.350;2023-07-13T02:00:51;64291.19;;;22.11;62.48
6899;BME280;3488;42.616;23.350;2023-07-13T02:03:19;64290.13;;;22.08;63.72
6899;BME280;3488;42.616;23.350;2023-07-13T02:05:46;64286.47;;;22.04;62.85
6899;BME280;3488;42.616;23.350;2023-07-13T02:08:13;64283.31;;;21.99;64.00
6899;BME280;3488;42.616;23.350;2023-07-13T02:10:40;64277.66;;;22.03;64.87
6899;BME280;3488;42.616;23.350;2023-07-13T02:13:09;64274.47;;;21.95;63.16
6899;BME280;3488;42.616;23.350;2023-07-13T02:15:40;64276.03;;;21.94;65.87
6899;BME280;3488;42.616;23.350;2023-07-13T02:18:07;64257.19;;;21.76;66.25
6899;BME280;3488;42.616;23.350;2023-07-13T02:20:35;64263.00;;;21.87;64.68
6899;BME280;3488;42.616;23.350;2023-07-13T02:23:02;64265.03;;;21.84;66.16
6899;BME280;3488;42.616;23.350;2023-07-13T02:25:30;64249.91;;;21.74;67.41
6899;BME280;3488;42.616;23.350;2023-07-13T02:27:57;64227.44;;;21.52;66.03
6899;BME280;3488;42.616;23.350;2023-07-13T02:30:27;64246.22;;;21.65;66.41
6899;BME280;3488;42.616;23.350;2023-07-13T02:32:55;64235.81;;;21.60;67.64
6899;BME280;3488;42.616;23.350;2023-07-13T02:35:22;64247.81;;;21.69;66.43
6899;BME280;3488;42.616;23.350;2023-07-13T02:37:50;64252.50;;;21.71;67.53
6899;BME280;3488;42.616;23.350;2023-07-13T02:40:17;64244.66;;;21.66;66.85
6899;BME280;3488;42.616;23.350;2023-07-13T02:42:44;64237.31;;;21.54;68.47
6899;BME280;3488;42.616;23.350;2023-07-13T02:45:11;64238.41;;;21.63;67.33
6899;BME280;3488;42.616;23.350;2023-07-13T02:47:41;64236.28;;;21.53;66.44
6899;BME280;3488;42.616;23.350;2023-07-13T02:50:09;64221.69;;;21.47;65.69
6899;BME280;3488;42.616;23.350;2023-07-13T02:52:36;64235.28;;;21.60;67.09
6899;BME280;3488;42.616;23.350;2023-07-13T02:55:04;64230.06;;;21.55;66.33
6899;BME280;3488;42.616;23.350;2023-07-13T02:57:31;64230.56;;;21.53;66.54
6899;BME280;3488;42.616;23.350;2023-07-13T02:59:59;64236.34;;;21.63;64.88
6899;BME280;3488;42.616;23.350;2023-07-13T03:02:26;64215.41;;;21.38;65.22
6899;BME280;3488;42.616;23.350;2023-07-13T03:04:55;64248.28;;;21.65;65.74
6899;BME280;3488;42.616;23.350;2023-07-13T03:07:23;64257.22;;;21.78;65.25
6899;BME280;3488;42.616;23.350;2023-07-13T03:09:54;64251.47;;;21.73;66.79
6899;BME280;3488;42.616;23.350;2023-07-13T03:12:22;64257.69;;;21.74;65.30
6899;BME280;3488;42.616;23.350;2023-07-13T03:14:50;64247.31;;;21.71;66.87
6899;BME280;3488;42.616;23.350;2023-07-13T03:17:17;64257.22;;;21.78;66.74
6899;BME280;3488;42.616;23.350;2023-07-13T03:19:44;64249.91;;;21.74;68.18
6899;BME280;3488;42.616;23.350;2023-07-13T03:22:17;64259.25;;;21.75;68.18
6899;BME280;3488;42.616;23.350;2023-07-13T03:24:44;64252.00;;;21.76;69.07
6899;BME280;3488;42.616;23.350;2023-07-13T03:27:12;64244.69;;;21.69;69.47
6899;BME280;3488;42.616;23.350;2023-07-13T03:29:39;64235.81;;;21.60;69.63
6899;BME280;3488;42.616;23.350;2023-07-13T03:32:07;64246.75;;;21.66;70.36
6899;BME280;3488;42.616;23.350;2023-07-13T03:34:35;64233.69;;;21.56;69.17
6899;BME280;3488;42.616;23.350;2023-07-13T03:37:02;64257.72;;;21.76;71.04
6899;BME280;3488;42.616;23.350;2023-07-13T03:39:31;64258.78;;;21.77;70.16
6899;BME280;3488;42.616;23.350;2023-07-13T03:41:59;64247.31;;;21.71;71.57
6899;BME280;3488;42.616;23.350;2023-07-13T03:44:26;64265.59;;;21.87;71.12
6899;BME280;3488;42.616;23.350;2023-07-13T03:46:53;64264.00;;;21.85;71.27
6899;BME280;3488;42.616;23.350;2023-07-13T03:49:21;64253.56;;;21.75;72.36
6899;BME280;3488;42.616;23.350;2023-07-13T03:51:48;64291.69;;;22.07;71.58
6899;BME280;3488;42.616;23.350;2023-07-13T03:54:16;64283.38;;;22.04;71.68
6899;BME280;3488;42.616;23.350;2023-07-13T03:56:44;64295.91;;;22.16;72.51
6899;BME280;3488;42.616;23.350;2023-07-13T03:59:12;64304.25;;;22.24;71.26
6899;BME280;3488;42.616;23.350;2023-07-13T04:01:39;64297.97;;;22.18;71.94
6899;BME280;3488;42.616;23.350;2023-07-13T04:04:06;64324.66;;;22.43;70.63
6899;BME280;3488;42.616;23.350;2023-07-13T04:06:33;64340.31;;;22.56;71.83
6899;BME280;3488;42.616;23.350;2023-07-13T04:09:02;64347.13;;;22.65;71.64
6899;BME280;3488;42.616;23.350;2023-07-13T04:11:32;64356.56;;;22.74;70.43
6899;BME280;3488;42.616;23.350;2023-07-13T04:14:01;64370.13;;;22.87;71.02
6899;BME280;3488;42.616;23.350;2023-07-13T04:16:28;64372.78;;;22.92;70.78
6899;BME280;3488;42.616;23.350;2023-07-13T04:18:55;64401.50;;;23.12;74.12
6899;BME280;3488;42.616;23.350;2023-07-13T04:21:25;64399.94;;;23.11;69.63
6899;BME280;3488;42.616;23.350;2023-07-13T04:23:52;64421.41;;;23.31;67.83
6899;BME280;3488;42.616;23.350;2023-07-13T04:26:20;64433.47;;;23.50;68.10
6899;BME280;3488;42.616;23.350;2023-07-13T04:28:48;64446.03;;;23.62;72.00
6899;BME280;3488;42.616;23.350;2023-07-13T04:31:17;64462.19;;;23.70;85.26
6899;BME280;3488;42.616;23.350;2023-07-13T04:33:44;64458.56;;;23.72;85.60
6899;BME280;3488;42.616;23.350;2023-07-13T04:36:11;64462.22;;;23.75;81.53
6899;BME280;3488;42.616;23.350;2023-07-13T04:38:38;64481.06;;;23.93;76.20
6899;BME280;3488;42.616;23.350;2023-07-13T04:41:07;64483.69;;;23.96;74.59
6899;BME280;3488;42.616;23.350;2023-07-13T04:43:34;64476.38;;;23.94;71.80
6899;BME280;3488;42.616;23.350;2023-07-13T04:46:04;64478.44;;;23.91;73.84
6899;BME280;3488;42.616;23.350;2023-07-13T04:48:33;64410.41;;;23.26;74.78
6899;BME280;3488;42.616;23.350;2023-07-13T04:51:01;64417.25;;;23.35;75.06
6899;BME280;3488;42.616;23.350;2023-07-13T04:53:30;64407.78;;;23.23;76.19
6899;BME280;3488;42.616;23.350;2023-07-13T04:55:58;64414.06;;;23.27;76.83
6899;BME280;3488;42.616;23.350;2023-07-13T04:58:25;64395.25;;;23.14;79.75
6899;BME280;3488;42.616;23.350;2023-07-13T05:00:53;64409.88;;;23.23;79.14
6899;BME280;3488;42.616;23.350;2023-07-13T05:03:20;64381.63;;;22.96;79.15
6899;BME280;3488;42.616;23.350;2023-07-13T05:05:57;64382.69;;;22.99;79.36
6899;BME280;3488;42.616;23.350;2023-07-13T05:08:24;64387.41;;;23.04;78.15
6899;BME280;3488;42.616;23.350;2023-07-13T05:10:51;64412.50;;;23.25;77.23
6899;BME280;3488;42.616;23.350;2023-07-13T05:13:19;64420.34;;;23.33;75.35
6899;BME280;3488;42.616;23.350;2023-07-13T05:15:47;64444.44;;;23.61;75.05
6899;BME280;3488;42.616;23.350;2023-07-13T05:18:21;64466.41;;;23.79;74.21
6899;BME280;3488;42.616;23.350;2023-07-13T05:20:58;64485.75;;;23.95;72.80
6899;BME280;3488;42.616;23.350;2023-07-13T05:23:25;64500.44;;;24.10;71.34
6899;BME280;3488;42.616;23.350;2023-07-13T05:25:52;64504.66;;;24.19;71.98
6899;BME280;3488;42.616;23.350;2023-07-13T05:28:19;64492.06;;;24.02;72.28
6899;BME280;3488;42.616;23.350;2023-07-13T05:30:47;64490.50;;;24.02;72.03
6899;BME280;3488;42.616;23.350;2023-07-13T05:33:15;64501.47;;;24.11;70.83
6899;BME280;3488;42.616;23.350;2023-07-13T05:35:42;64518.25;;;24.32;71.71
6899;BME280;3488;42.616;23.350;2023-07-13T05:38:11;64500.97;;;24.15;73.15
6899;BME280;3488;42.616;23.350;2023-07-13T05:40:39;64542.84;;;24.50;73.73
6899;BME280;3488;42.616;23.350;2023-07-13T05:43:06;64537.09;;;24.50;72.85
6899;BME280;3488;42.616;23.350;2023-07-13T05:45:33;64533.97;;;24.47;72.07
6899;BME280;3488;42.616;23.350;2023-07-13T05:48:01;64545.97;;;24.56;70.72
6899;BME280;3488;42.616;23.350;2023-07-13T05:50:28;64542.34;;;24.55;71.10
6899;BME280;3488;42.616;23.350;2023-07-13T05:52:55;64541.81;;;24.52;70.84
6899;BME280;3488;42.616;23.350;2023-07-13T05:55:23;64552.28;;;24.62;70.43
6899;BME280;3488;42.616;23.350;2023-07-13T05:57:51;64562.72;;;24.67;73.45
6899;BME280;3488;42.616;23.350;2023-07-13T06:00:18;64559.63;;;24.69;74.74
6899;BME280;3488;42.616;23.350;2023-07-13T06:02:45;64566.88;;;24.68;70.47
6899;BME280;3488;42.616;23.350;2023-07-13T06:05:13;64573.22;;;24.82;67.30
6899;BME280;3488;42.616;23.350;2023-07-13T06:07:40;64601.50;;;25.06;70.42
6899;BME280;3488;42.616;23.350;2023-07-13T06:10:08;64612.53;;;25.22;70.94
6899;BME280;3488;42.616;23.350;2023-07-13T06:12:37;64627.19;;;25.34;72.89
6899;BME280;3488;42.616;23.350;2023-07-13T06:15:05;64639.75;;;25.41;69.30
6899;BME280;3488;42.616;23.350;2023-07-13T06:17:32;64651.31;;;25.57;70.30
6899;BME280;3488;42.616;23.350;2023-07-13T06:20:00;64661.78;;;25.69;69.01
6899;BME280;3488;42.616;23.350;2023-07-13T06:22:27;64678.53;;;25.80;67.17
6899;BME280;3488;42.616;23.350;2023-07-13T06:24:54;64697.97;;;26.04;65.32
6899;BME280;3488;42.616;23.350;2023-07-13T06:27:21;64694.78;;;26.01;64.72
6899;BME280;3488;42.616;23.350;2023-07-13T06:29:50;64690.06;;;25.94;61.57
6899;BME280;3488;42.616;23.350;2023-07-13T06:32:17;64717.34;;;26.20;60.71
6899;BME280;3488;42.616;23.350;2023-07-13T06:34:44;64747.22;;;26.44;60.29
6899;BME280;3488;42.616;23.350;2023-07-13T06:37:11;64751.44;;;26.50;59.43
6899;BME280;3488;42.616;23.350;2023-07-13T06:39:38;64749.84;;;26.46;59.13
6899;BME280;3488;42.616;23.350;2023-07-13T06:42:06;64770.81;;;26.66;60.01
6899;BME280;3488;42.616;23.350;2023-07-13T06:44:33;64765.09;;;26.68;61.85
6899;BME280;3488;42.616;23.350;2023-07-13T06:47:03;64759.81;;;26.61;60.25
6899;BME280;3488;42.616;23.350;2023-07-13T06:49:30;64772.94;;;26.71;59.94
6899;BME280;3488;42.616;23.350;2023-07-13T06:51:58;64776.63;;;26.77;61.44
6899;BME280;3488;42.616;23.350;2023-07-13T06:54:26;64785.50;;;26.80;59.36
6899;BME280;3488;42.616;23.350;2023-07-13T06:56:54;64783.94;;;26.84;57.35
6899;BME280;3488;42.616;23.350;2023-07-13T06:59:21;64782.38;;;26.80;59.35
6899;BME280;3488;42.616;23.350;2023-07-13T07:01:48;64799.16;;;26.93;61.07
6899;BME280;3488;42.616;23.350;2023-07-13T07:04:17;64795.50;;;26.97;59.40
6899;BME280;3488;42.616;23.350;2023-07-13T07:06:44;64785.53;;;26.85;59.83
6899;BME280;3488;42.616;23.350;2023-07-13T07:09:11;64820.69;;;27.19;56.82
6899;BME280;3488;42.616;23.350;2023-07-13T07:11:39;64827.50;;;27.25;57.26
6899;BME280;3488;42.616;23.350;2023-07-13T07:14:07;64839.59;;;27.42;56.69
6899;BME280;3488;42.616;23.350;2023-07-13T07:16:35;64836.97;;;27.35;54.60
6899;BME280;3488;42.616;23.350;2023-07-13T07:19:02;64864.75;;;27.61;55.12
6899;BME280;3488;42.616;23.350;2023-07-13T07:21:31;64866.84;;;27.63;55.64
6899;BME280;3488;42.616;23.350;2023-07-13T07:23:58;64848.50;;;27.46;55.50
6899;BME280;3488;42.616;23.350;2023-07-13T07:26:28;64866.34;;;27.60;54.60
6899;BME280;3488;42.616;23.350;2023-07-13T07:28:56;64875.25;;;27.69;54.46
6899;BME280;3488;42.616;23.350;2023-07-13T07:31:23;64876.31;;;27.72;56.31
6899;BME280;3488;42.616;23.350;2023-07-13T07:33:51;64901.00;;;27.98;55.06
6899;BME280;3488;42.616;23.350;2023-07-13T07:36:20;64913.59;;;28.08;54.28
6899;BME280;3488;42.616;23.350;2023-07-13T07:38:48;64925.16;;;28.24;53.15
6899;BME280;3488;42.616;23.350;2023-07-13T07:41:17;64952.44;;;28.42;52.20
6899;BME280;3488;42.616;23.350;2023-07-13T07:43:44;64916.72;;;28.08;51.51
6899;BME280;3488;42.616;23.350;2023-07-13T07:46:12;64932.50;;;28.21;51.37
6899;BME280;3488;42.616;23.350;2023-07-13T07:48:39;64903.09;;;27.95;51.49
6899;BME280;3488;42.616;23.350;2023-07-13T07:51:07;64909.94;;;28.07;54.35
6899;BME280;3488;42.616;23.350;2023-07-13T07:53:34;64948.22;;;28.36;53.62
6899;BME280;3488;42.616;23.350;2023-07-13T07:56:03;64933.56;;;28.29;51.29
6899;BME280;3488;42.616;23.350;2023-07-13T07:58:31;64956.13;;;28.49;52.17
6899;BME280;3488;42.616;23.350;2023-07-13T08:01:03;64955.06;;;28.50;51.59
6899;BME280;3488;42.616;23.350;2023-07-13T08:03:31;64955.59;;;28.48;51.21
6899;BME280;3488;42.616;23.350;2023-07-13T08:05:59;64967.69;;;28.62;51.64
6899;BME280;3488;42.616;23.350;2023-07-13T08:08:26;64970.31;;;28.60;51.40
6899;BME280;3488;42.616;23.350;2023-07-13T08:10:53;65005.50;;;28.91;51.82
6899;BME280;3488;42.616;23.350;2023-07-13T08:13:21;65038.63;;;29.25;51.35
6899;BME280;3488;42.616;23.350;2023-07-13T08:15:49;65038.59;;;29.22;50.95
6899;BME280;3488;42.616;23.350;2023-07-13T08:18:16;65047.56;;;29.33;50.20
6899;BME280;3488;42.616;23.350;2023-07-13T08:20:43;65041.25;;;29.32;49.87
6899;BME280;3488;42.616;23.350;2023-07-13T08:23:11;65055.41;;;29.41;51.88
6899;BME280;3488;42.616;23.350;2023-07-13T08:25:38;65055.44;;;29.43;51.76
6899;BME280;3488;42.616;23.350;2023-07-13T08:28:06;65064.34;;;29.49;51.75
6899;BME280;3488;42.616;23.350;2023-07-13T08:30:35;65061.72;;;29.47;52.08
6899;BME280;3488;42.616;23.350;2023-07-13T08:33:03;65082.25;;;29.72;51.88
6899;BME280;3488;42.616;23.350;2023-07-13T08:35:31;65100.13;;;29.81;52.74
6899;BME280;3488;42.616;23.350;2023-07-13T08:37:58;65072.25;;;29.62;51.04
6899;BME280;3488;42.616;23.350;2023-07-13T08:40:27;65089.59;;;29.74;50.13
6899;BME280;3488;42.616;23.350;2023-07-13T08:42:56;65094.88;;;29.84;52.16
6899;BME280;3488;42.616;23.350;2023-07-13T08:45:30;65119.56;;;30.07;50.98
6899;BME280;3488;42.616;23.350;2023-07-13T08:48:09;65141.63;;;30.21;48.91
6899;BME280;3488;42.616;23.350;2023-07-13T08:50:46;65140.59;;;30.22;47.29
6899;BME280;3488;42.616;23.350;2023-07-13T08:53:15;65124.81;;;30.10;47.07
6899;BME280;3488;42.616;23.350;2023-07-13T08:55:43;65123.75;;;30.06;49.14
6899;BME280;3488;42.616;23.350;2023-07-13T08:58:13;65143.75;;;30.25;48.67
6899;BME280;3488;42.616;23.350;2023-07-13T09:00:48;65135.34;;;30.15;48.76
6899;BME280;3488;42.616;23.350;2023-07-13T09:03:22;65132.69;;;30.17;47.30
6899;BME280;3488;42.616;23.350;2023-07-13T09:05:53;65166.38;;;30.47;47.85
6899;BME280;3488;42.616;23.350;2023-07-13T09:08:42;65158.47;;;30.39;46.80
6899;BME280;3488;42.616;23.350;2023-07-13T09:11:26;65182.16;;;30.65;46.46
6899;BME280;3488;42.616;23.350;2023-07-13T09:14:01;65180.56;;;30.63;45.24
6899;BME280;3488;42.616;23.350;2023-07-13T09:16:33;65119.03;;;30.04;44.56
6899;BME280;3488;42.616;23.350;2023-07-13T09:19:05;65141.13;;;30.28;44.53
6899;BME280;3488;42.616;23.350;2023-07-13T09:21:38;65145.88;;;30.30;45.84
6899;BME280;3488;42.616;23.350;2023-07-13T09:24:27;65171.09;;;30.54;46.33
6899;BME280;3488;42.616;23.350;2023-07-13T09:26:55;65184.25;;;30.64;44.77
6899;BME280;3488;42.616;23.350;2023-07-13T09:29:27;65212.69;;;30.89;43.57
6899;BME280;3488;42.616;23.350;2023-07-13T09:31:57;65222.66;;;30.98;45.27
6899;BME280;3488;42.616;23.350;2023-07-13T09:34:30;65206.34;;;30.88;41.44
6899;BME280;3488;42.616;23.350;2023-07-13T09:36:59;65226.88;;;31.02;40.79
6899;BME280;3488;42.616;23.350;2023-07-13T09:39:28;65206.91;;;30.86;39.87
6899;BME280;3488;42.616;23.350;2023-07-13T09:42:01;65223.72;;;31.04;39.75
6899;BME280;3488;42.616;23.350;2023-07-13T09:44:35;65220.03;;;31.01;40.07
6899;BME280;3488;42.616;23.350;2023-07-13T09:47:16;65244.22;;;31.19;38.90
6899;BME280;3488;42.616;23.350;2023-07-13T09:49:45;65250.03;;;31.24;39.82
6899;BME280;3488;42.616;23.350;2023-07-13T09:52:15;65285.28;;;31.63;41.32
6899;BME280;3488;42.616;23.350;2023-07-13T09:54:45;65293.72;;;31.71;41.51
6899;BME280;3488;42.616;23.350;2023-07-13T09:57:15;65322.66;;;31.99;42.39
6899;BME280;3488;42.616;23.350;2023-07-13T09:59:44;65342.69;;;32.18;39.41
6899;BME280;3488;42.616;23.350;2023-07-13T10:02:26;65337.94;;;32.13;38.89
6899;BME280;3488;42.616;23.350;2023-07-13T10:04:58;65335.84;;;32.11;41.49
6899;BME280;3488;42.616;23.350;2023-07-13T10:07:28;65326.34;;;32.00;41.63
6899;BME280;3488;42.616;23.350;2023-07-13T10:09:57;65323.22;;;31.99;42.26
6899;BME280;3488;42.616;23.350;2023-07-13T10:12:26;65332.16;;;32.05;39.26
6899;BME280;3488;42.616;23.350;2023-07-13T10:14:56;65314.25;;;31.93;40.38
6899;BME280;3488;42.616;23.350;2023-07-13T10:17:29;65331.63;;;32.07;42.12
6899;BME280;3488;42.616;23.350;2023-07-13T10:20:03;65371.66;;;32.45;41.34
6899;BME280;3488;42.616;23.350;2023-07-13T10:22:37;65394.28;;;32.69;39.04
6899;BME280;3488;42.616;23.350;2023-07-13T10:25:15;65422.19;;;32.91;40.89
6899;BME280;3488;42.616;23.350;2023-07-13T10:27:44;65442.78;;;33.11;38.07
6899;BME280;3488;42.616;23.350;2023-07-13T10:30:17;65425.38;;;32.97;37.31
6899;BME280;3488;42.616;23.350;2023-07-13T10:32:47;65394.84;;;32.65;38.53
6899;BME280;3488;42.616;23.350;2023-07-13T10:35:17;65434.31;;;33.05;42.10
6899;BME280;3488;42.616;23.350;2023-07-13T10:37:48;65430.16;;;32.96;39.78
6899;BME280;3488;42.616;23.350;2023-07-13T10:40:22;65424.88;;;32.96;41.74
6899;BME280;3488;42.616;23.350;2023-07-13T10:42:53;65473.88;;;33.43;41.53
6899;BME280;3488;42.616;23.350;2023-07-13T10:45:23;65475.44;;;33.44;39.50
6899;BME280;3488;42.616;23.350;2023-07-13T10:47:52;65468.06;;;33.35;41.92
6899;BME280;3488;42.616;23.350;2023-07-13T10:50:24;65480.19;;;33.46;38.79
6899;BME280;3488;42.616;23.350;2023-07-13T10:52:54;65479.66;;;33.48;37.65
6899;BME280;3488;42.616;23.350;2023-07-13T10:55:37;65487.06;;;33.50;39.00
6899;BME280;3488;42.616;23.350;2023-07-13T10:58:15;65514.44;;;33.81;39.88
6899;BME280;3488;42.616;23.350;2023-07-13T11:00:50;65517.59;;;33.87;39.14
6899;BME280;3488;42.616;23.350;2023-07-13T11:03:22;65530.81;;;33.95;38.28
6899;BME280;3488;42.616;23.350;2023-07-13T11:06:05;65541.88;;;34.05;39.54
6899;BME280;3488;42.616;23.350;2023-07-13T11:08:36;65550.81;;;34.14;38.62
6899;BME280;3488;42.616;23.350;2023-07-13T11:11:36;65551.88;;;34.15;39.16
6899;BME280;3488;42.616;23.350;2023-07-13T11:14:08;65538.72;;;34.05;36.45
6899;BME280;3488;42.616;23.350;2023-07-13T11:16:52;65543.47;;;34.04;36.16
6899;BME280;3488;42.616;23.350;2023-07-13T11:19:39;65556.09;;;34.21;34.66
6899;BME280;3488;42.616;23.350;2023-07-13T11:22:24;65578.22;;;34.40;34.17
6899;BME280;3488;42.616;23.350;2023-07-13T11:24:57;65587.22;;;34.51;34.76
6899;BME280;3488;42.616;23.350;2023-07-13T11:27:36;65574.03;;;34.36;34.51
6899;BME280;3488;42.616;23.350;2023-07-13T11:30:13;65614.13;;;34.74;37.61
6899;BME280;3488;42.616;23.350;2023-07-13T11:32:45;65619.88;;;34.84;35.04
6899;BME280;3488;42.616;23.350;2023-07-13T11:35:22;65620.44;;;34.80;35.95
6899;BME280;3488;42.616;23.350;2023-07-13T11:37:49;65643.09;;;35.09;36.87
6899;BME280;3488;42.616;23.350;2023-07-13T11:40:18;65648.41;;;35.09;33.36
6899;BME280;3488;42.616;23.350;2023-07-13T11:42:47;65661.06;;;35.19;36.45
6899;BME280;3488;42.616;23.350;2023-07-13T11:45:19;65667.91;;;35.28;34.19
6899;BME280;3488;42.616;23.350;2023-07-13T11:47:48;65660.00;;;35.18;34.22
6899;BME280;3488;42.616;23.350;2023-07-13T11:50:20;65647.34;;;35.11;34.42
6899;BME280;3488;42.616;23.350;2023-07-13T11:52:50;65662.13;;;35.22;32.55
6899;BME280;3488;42.616;23.350;2023-07-13T11:55:20;65649.44;;;35.13;31.41
6899;BME280;3488;42.616;23.350;2023-07-13T11:57:55;65658.44;;;35.19;31.37
6899;BME280;3488;42.616;23.350;2023-07-13T12:00:28;65689.03;;;35.48;31.87
6899;BME280;3488;42.616;23.350;2023-07-13T12:02:59;65695.38;;;35.54;31.66
6899;BME280;3488;42.616;23.350;2023-07-13T12:05:28;65722.81;;;35.80;30.81
6899;BME280;3488;42.616;23.350;2023-07-13T12:07:57;65762.94;;;36.18;30.75
6899;BME280;3488;42.616;23.350;2023-07-13T12:10:26;65788.31;;;36.40;29.41
6899;BME280;3488;42.616;23.350;2023-07-13T12:12:57;65828.44;;;36.80;30.64
6899;BME280;3488;42.616;23.350;2023-07-13T12:15:36;65840.06;;;36.91;29.08
6899;BME280;3488;42.616;23.350;2023-07-13T12:18:11;65845.84;;;36.97;29.70
6899;BME280;3488;42.616;23.350;2023-07-13T12:20:40;65853.78;;;37.02;30.38
6899;BME280;3488;42.616;23.350;2023-07-13T12:23:19;65893.44;;;37.40;30.94
6899;BME280;3488;42.616;23.350;2023-07-13T12:25:48;65936.78;;;37.78;32.40
6899;BME280;3488;42.616;23.350;2023-07-13T12:28:31;65949.41;;;37.95;28.63
6899;BME280;3488;42.616;23.350;2023-07-13T12:30:59;65929.91;;;37.72;29.56
6899;BME280;3488;42.616;23.350;2023-07-13T12:33:28;65991.22;;;38.30;26.36
6899;BME280;3488;42.616;23.350;2023-07-13T12:35:57;66008.66;;;38.47;28.57
6899;BME280;3488;42.616;23.350;2023-07-13T12:38:24;65992.75;;;38.37;29.46
6899;BME280;3488;42.616;23.350;2023-07-13T12:40:52;66009.72;;;38.45;29.48
6899;BME280;3488;42.616;23.350;2023-07-13T12:43:20;65996.44;;;38.43;29.81
6899;BME280;3488;42.616;23.350;2023-07-13T12:46:01;65995.41;;;38.37;29.05
6899;BME280;3488;42.616;23.350;2023-07-13T12:48:28;65952.63;;;37.93;28.81
6899;BME280;3488;42.616;23.350;2023-07-13T12:50:56;66014.47;;;38.52;26.27
6899;BME280;3488;42.616;23.350;2023-07-13T12:53:30;65983.81;;;38.26;27.94
6899;BME280;3488;42.616;23.350;2023-07-13T12:56:03;66011.25;;;38.54;28.21
6899;BME280;3488;42.616;23.350;2023-07-13T12:58:36;66030.88;;;38.70;26.19
6899;BME280;3488;42.616;23.350;2023-07-13T13:01:07;66060.50;;;38.96;26.59
6899;BME280;3488;42.616;23.350;2023-07-13T13:03:37;66067.91;;;39.03;27.20
6899;BME280;3488;42.616;23.350;2023-07-13T13:06:21;66097.53;;;39.31;26.89
6899;BME280;3488;42.616;23.350;2023-07-13T13:08:51;66150.44;;;39.81;28.15
6899;BME280;3488;42.616;23.350;2023-07-13T13:11:20;66139.84;;;39.74;26.56
6899;BME280;3488;42.616;23.350;2023-07-13T13:13:49;66125.06;;;39.57;24.61
6899;BME280;3488;42.616;23.350;2023-07-13T13:16:20;66136.16;;;39.68;25.50
6899;BME280;3488;42.616;23.350;2023-07-13T13:18:49;66123.97;;;39.59;26.13
6899;BME280;3488;42.616;23.350;2023-07-13T13:21:17;66162.63;;;39.93;27.84
6899;BME280;3488;42.616;23.350;2023-07-13T13:23:44;66165.78;;;39.96;26.15
6899;BME280;3488;42.616;23.350;2023-07-13T13:26:14;66153.06;;;39.84;26.64